ROMMA est une association bénévole à but non lucratif. Votre soutien est indispensable : ADHERER à ROMMA ou FAIRE un DON

Lyon - (69, Rhône)

Plaine lyonnaise (169 m)   Longitude: 04° 49' 55" E   Latitude: 45° 43' 50" N Station partenaire n°124
 

Détail journalier du     <<     >>

Température Precipitation Humidité Pression Vent Dir Rafale Dir. rafale Ensol.
Heure (°C) (mm) (%) (hPa) (km/h) (km/h) (min)
01:00 14.45.89510132SE11SE0
02:00 13.82.39510115SE16SE0
03:00 15.40.580101013SE43SE0
04:00 14.808210096SO19S0
05:00 14.608310099SO19SO0
06:00 13.908810094SE16SE0
07:00 13.708910096SO18SO0
08:00 11.809210102SO6SE0
09:00 12.809510113S11S0
10:00 14.808410116SO19SO20
11:00 16.907310125SO23SO60
12:00 17.3075101311S27SO50
13:00 18.6070101310SO24SE50
14:00 19.6067101210SE26SE60
15:00 20.2060101211S26SO50
16:00 21.205610118SO23SO60
17:00 20.905610129SO24SO60
18:00 19.4063101210SO19SO30
19:00 18.006910137SO18SE0
20:00 16.507610154SO14SO0
21:00 14.307910153SO11SO0
22:00 13.708210163SO11SO0
23:00 12.508710172SO3SO0
minuit 12.209110182SO5SO0

Graphique du 24-10-2019

 

Serveur OMMA